Strona główna
METAR-TAF:

METAR-TAF

Lotnisko :

Port lotniczy Libreville

Libreville, Gabon

Szerokość geograficzna: 00-27N, Długość geograficzna: 009-25E, wysokość: 12 m

Aktualna obserwacja pogody

Raport powstał 23 minut temu, godzina 23:00 UTC
Wiatr 7 kt od południowy zachód, zmienny między południe i zachodnio-południowy zachód
Temperatura 26°C
Wilgotność 84%
Ciśnienie 1013 hPa
Widzialność 10 km lub więcej
Mało chmury na wysokości 1400 ft

METAR: FOOL 232300Z 22007KT 190V250 9999 FEW014 26/23 Q1013 NOSIG

czas: 00:23 (23:23 UTC)

Prognoza

Raport powstał 6 godziny i 23 minut temu, godzina 17:00 UTC
Prognoza ważna od 23 godzina 18 UTC do 24 godzina 24 UTC
Wiatr 7 kt od południowo-południowy zachód
Widzialność 10 km lub więcej
Rozproszone chmury na wysokości 1200 ft
Przerywane chmury na wysokości 3000 ft

TAF: FOOL 231700Z 2318/2424 20007KT 9999 SCT012 BKN030

Obserwacja i prognoza pogody dla ponad 4000 lotnisk (raport METAR i TAF).

Dostępne stacje oznaczono żółtymi i czerwonymi punktami na mapie.

Najedź kursorem aby zobaczyć nazwę stacji.

Kliknij aby zobaczyć obserwacje i prognozy pogody.

Aby zmienić mapę: kliknij na zielony przycisk z czarnym krzyżykiem, aby powiększyć; na zielony przycisk z myślnikiem, aby pomniejszyć; na zielone strzałki, aby przejść do map sąsiednich.


METAR-TAF: